Time;durP1;ratioP1;P1;durP2;ratioP2;P2;SDS_P1;SDS_P2;PMS_P1;PMS_P2;Temp;Humidity;BMP_temperature;BMP_pressure;BME280_temperature;BME280_humidity;BME280_pressure;Samples;Min_cycle;Max_cycle;Signal;HPM_P1;HPM_P2
2024/01/27 00:00:46;;;;;;;4.90;1.30;;;;;;;4.58;92.40;100113.80;129827;1267;108272;-81
2024/01/27 00:04:11;;;;;;;5.10;1.60;;;;;;;4.55;92.27;100114.80;129873;1264;110021;-80
2024/01/27 00:07:17;;;;;;;4.90;1.40;;;;;;;4.52;91.03;100123.99;129905;1267;108585;-81
2024/01/27 00:10:22;;;;;;;7.80;1.60;;;;;;;4.51;91.19;100124.75;129883;1266;107589;-81
2024/01/27 00:13:28;;;;;;;9.80;1.90;;;;;;;4.52;91.14;100133.30;129945;1269;107071;-81
2024/01/27 00:16:34;;;;;;;6.70;1.60;;;;;;;4.48;90.99;100139.56;129861;1270;108737;-80
2024/01/27 00:19:40;;;;;;;6.80;1.60;;;;;;;4.45;90.85;100143.00;129862;1264;108704;-80
2024/01/27 00:22:45;;;;;;;8.20;2.00;;;;;;;4.45;90.69;100149.32;129892;1264;108683;-80
2024/01/27 00:25:51;;;;;;;9.80;1.70;;;;;;;4.45;90.36;100156.27;129847;1264;106740;-80
2024/01/27 00:28:57;;;;;;;7.30;1.70;;;;;;;4.45;90.29;100157.63;129804;1270;108699;-81
2024/01/27 00:32:02;;;;;;;8.70;1.70;;;;;;;4.42;89.74;100159.61;129851;1264;109126;-80
2024/01/27 00:35:11;;;;;;;5.70;1.60;;;;;;;4.40;89.07;100175.09;129855;1269;108666;-81
2024/01/27 00:38:16;;;;;;;9.00;1.70;;;;;;;4.39;89.79;100177.61;129894;1264;108705;-81
2024/01/27 00:41:22;;;;;;;10.40;1.80;;;;;;;4.36;90.38;100179.27;129886;1264;106699;-81
2024/01/27 00:44:27;;;;;;;7.80;1.80;;;;;;;4.31;90.04;100186.62;129843;1269;108709;-81
2024/01/27 00:47:34;;;;;;;6.70;2.20;;;;;;;4.27;89.74;100192.09;129854;1268;106590;-80
2024/01/27 00:50:39;;;;;;;9.40;1.70;;;;;;;4.28;89.45;100198.13;129903;1264;108741;-82
2024/01/27 00:53:45;;;;;;;10.00;1.90;;;;;;;4.29;89.11;100203.69;129880;1264;107781;-82
2024/01/27 00:56:51;;;;;;;7.80;2.30;;;;;;;4.28;88.07;100205.17;129907;1267;106557;-81
2024/01/27 00:59:56;;;;;;;7.80;1.70;;;;;;;4.25;87.62;100207.86;129862;1264;108713;-82
2024/01/27 01:03:02;;;;;;;6.40;1.80;;;;;;;4.23;88.22;100212.23;129837;1268;107622;-81
2024/01/27 01:06:07;;;;;;;6.30;1.40;;;;;;;4.24;88.56;100208.46;129819;1270;106622;-81
2024/01/27 01:09:13;;;;;;;8.00;1.60;;;;;;;4.26;88.19;100219.79;129847;1269;107481;-82
2024/01/27 01:12:21;;;;;;;9.40;2.10;;;;;;;4.30;88.43;100217.20;129862;1270;108581;-82
2024/01/27 01:15:27;;;;;;;7.60;2.10;;;;;;;4.33;88.43;100219.23;129857;1269;108633;-81
2024/01/27 01:18:32;;;;;;;6.80;2.20;;;;;;;4.37;88.15;100216.88;129853;1264;109052;-82
2024/01/27 01:21:38;;;;;;;6.00;1.60;;;;;;;4.31;86.43;100227.15;129868;1269;107836;-81
2024/01/27 01:24:43;;;;;;;9.50;1.90;;;;;;;4.28;86.79;100229.48;129912;1265;107218;-81
2024/01/27 01:27:52;;;;;;;9.20;1.70;;;;;;;4.30;86.96;100228.50;129859;1270;109143;-81
2024/01/27 01:30:58;;;;;;;8.00;1.70;;;;;;;4.32;86.38;100232.36;129833;1269;106584;-82
2024/01/27 01:34:03;;;;;;;8.70;2.10;;;;;;;4.33;86.27;100229.98;129882;1265;108333;-82
2024/01/27 01:37:09;;;;;;;8.60;2.00;;;;;;;4.29;85.36;100226.09;129884;1267;109154;-81
2024/01/27 01:40:15;;;;;;;7.50;1.70;;;;;;;4.24;85.24;100227.14;129860;1264;108547;-80
2024/01/27 01:43:20;;;;;;;8.70;2.10;;;;;;;4.21;84.82;100230.20;129871;1266;108659;-80
2024/01/27 01:46:26;;;;;;;10.80;2.40;;;;;;;4.21;85.62;100228.60;129850;1265;106777;-80
2024/01/27 01:49:32;;;;;;;10.50;2.70;;;;;;;4.26;84.99;100222.73;129709;1269;107831;-82
2024/01/27 01:52:39;;;;;;;12.00;2.50;;;;;;;4.29;84.65;100222.89;129703;1265;107564;-80
2024/01/27 01:55:46;;;;;;;13.60;2.90;;;;;;;4.27;84.27;100233.98;129692;1269;106772;-81
2024/01/27 01:58:52;;;;;;;8.50;2.60;;;;;;;4.24;84.36;100229.44;129843;1270;107023;-80
2024/01/27 02:01:57;;;;;;;10.90;2.40;;;;;;;4.23;84.75;100234.11;129846;1269;106427;-80
2024/01/27 02:05:03;;;;;;;7.80;2.20;;;;;;;4.22;84.83;100239.25;129842;1264;106554;-81
2024/01/27 02:08:09;;;;;;;11.80;3.30;;;;;;;4.23;83.62;100242.71;129853;1270;107782;-81
2024/01/27 02:11:15;;;;;;;9.90;2.70;;;;;;;4.27;84.24;100244.90;129870;1270;108614;-82
2024/01/27 02:14:25;;;;;;;7.90;2.60;;;;;;;4.30;83.92;100244.80;129884;1265;108562;-82
2024/01/27 02:17:30;;;;;;;9.60;2.60;;;;;;;4.32;84.25;100253.98;129925;1264;108843;-82
2024/01/27 02:20:37;;;;;;;9.30;2.20;;;;;;;4.30;83.68;100254.83;129815;1270;106319;-82
2024/01/27 02:23:42;;;;;;;11.20;2.40;;;;;;;4.23;83.53;100255.37;129855;1269;106418;-81
2024/01/27 02:26:48;;;;;;;11.10;2.50;;;;;;;4.15;84.02;100262.84;129829;1269;108476;-82
2024/01/27 02:29:53;;;;;;;10.50;2.00;;;;;;;4.09;85.22;100249.32;129820;1270;108820;-80
2024/01/27 02:32:59;;;;;;;10.20;2.50;;;;;;;4.10;85.22;100257.05;129912;1270;108989;-80
2024/01/27 02:36:05;;;;;;;7.60;2.10;;;;;;;4.12;85.51;100260.94;129888;1270;108725;-80
2024/01/27 02:39:11;;;;;;;10.50;3.00;;;;;;;4.16;85.61;100256.24;129902;1269;106742;-81
2024/01/27 02:42:16;;;;;;;11.30;3.50;;;;;;;4.15;85.44;100252.80;129852;1265;106697;-81
2024/01/27 02:45:22;;;;;;;9.80;2.70;;;;;;;4.13;85.43;100255.05;129850;1269;108816;-81
2024/01/27 02:48:27;;;;;;;7.20;2.10;;;;;;;4.09;85.12;100250.74;129871;1268;108690;-82
2024/01/27 02:51:33;;;;;;;10.60;2.40;;;;;;;4.07;85.56;100254.60;129866;1270;108748;-81
2024/01/27 02:54:38;;;;;;;7.80;2.20;;;;;;;4.10;85.19;100257.23;129871;1267;106750;-82
2024/01/27 02:57:44;;;;;;;6.80;2.30;;;;;;;4.10;85.14;100250.73;129870;1269;108708;-81
2024/01/27 03:00:50;;;;;;;7.30;2.00;;;;;;;4.17;84.99;100255.34;129868;1265;107013;-81
2024/01/27 03:03:56;;;;;;;8.30;2.20;;;;;;;4.21;85.04;100258.20;129857;1265;108663;-82
2024/01/27 03:07:01;;;;;;;8.00;2.10;;;;;;;4.22;84.47;100257.02;129828;1264;108561;-81
2024/01/27 03:10:08;;;;;;;8.60;1.90;;;;;;;4.19;84.68;100258.14;129877;1269;108372;-81
2024/01/27 03:13:14;;;;;;;9.50;2.30;;;;;;;4.19;84.37;100257.13;129961;1267;108016;-82
2024/01/27 03:16:20;;;;;;;8.10;1.90;;;;;;;4.15;84.04;100262.53;129830;1269;107763;-82
2024/01/27 03:19:25;;;;;;;8.10;2.00;;;;;;;4.09;83.80;100259.77;129877;1269;107615;-82
2024/01/27 03:22:31;;;;;;;8.70;2.10;;;;;;;4.10;84.14;100258.60;129897;1268;108850;-81
2024/01/27 03:25:36;;;;;;;12.30;2.20;;;;;;;4.12;84.10;100253.38;129855;1265;107730;-78
2024/01/27 03:28:42;;;;;;;9.30;2.10;;;;;;;4.13;83.46;100259.85;129636;1282;108613;-82
2024/01/27 03:31:49;;;;;;;9.00;1.60;;;;;;;4.11;83.92;100265.08;129848;1267;107789;-81
2024/01/27 03:34:54;;;;;;;9.50;2.00;;;;;;;4.10;83.58;100268.29;129869;1270;106795;-81
2024/01/27 03:38:00;;;;;;;9.70;1.60;;;;;;;4.09;83.77;100271.02;129879;1264;108559;-82
2024/01/27 03:41:06;;;;;;;8.40;2.00;;;;;;;4.10;83.20;100269.23;129844;1270;108764;-81
2024/01/27 03:44:12;;;;;;;7.40;2.30;;;;;;;4.12;83.12;100278.55;129861;1265;108609;-81
2024/01/27 03:47:18;;;;;;;9.70;2.10;;;;;;;4.16;83.30;100277.38;129705;1267;216473;-81
2024/01/27 03:50:23;;;;;;;12.70;3.10;;;;;;;4.18;82.90;100284.50;129857;1270;108712;-81
2024/01/27 03:53:29;;;;;;;8.30;2.10;;;;;;;4.14;82.42;100287.02;129872;1268;107563;-81
2024/01/27 03:56:35;;;;;;;9.70;2.80;;;;;;;4.10;82.35;100290.65;129871;1269;107775;-81
2024/01/27 03:59:42;;;;;;;9.00;2.20;;;;;;;4.06;82.22;100287.45;129865;1270;107746;-81
2024/01/27 04:02:48;;;;;;;6.80;1.80;;;;;;;4.04;82.29;100293.75;129867;1264;108753;-80
2024/01/27 04:05:53;;;;;;;12.40;3.30;;;;;;;4.02;82.24;100299.69;129841;1269;108994;-82
2024/01/27 04:08:59;;;;;;;8.60;2.20;;;;;;;4.05;82.39;100301.77;129833;1270;107730;-81
2024/01/27 04:12:05;;;;;;;9.20;2.40;;;;;;;4.10;82.22;100297.03;129795;1267;108783;-81
2024/01/27 04:15:12;;;;;;;11.90;3.00;;;;;;;4.17;82.01;100293.54;129808;1267;108683;-80
2024/01/27 04:18:17;;;;;;;8.70;2.30;;;;;;;4.19;82.10;100297.55;129810;1267;108780;-80
2024/01/27 04:21:23;;;;;;;12.00;3.30;;;;;;;4.19;81.45;100302.17;129845;1267;108410;-81
2024/01/27 04:24:28;;;;;;;9.10;2.40;;;;;;;4.18;81.52;100310.38;129799;1270;107724;-79
2024/01/27 04:27:37;;;;;;;5.50;1.90;;;;;;;4.15;81.83;100313.40;129561;1267;109230;-82
2024/01/27 04:30:43;;;;;;;9.40;3.00;;;;;;;4.15;81.81;100311.64;129844;1266;107797;-80
2024/01/27 04:33:48;;;;;;;11.10;2.40;;;;;;;4.11;81.73;100309.59;129840;1270;108740;-80
2024/01/27 04:36:54;;;;;;;11.00;2.10;;;;;;;4.08;81.59;100310.52;129884;1265;106621;-80
2024/01/27 04:39:59;;;;;;;7.70;1.90;;;;;;;4.09;81.47;100309.23;129874;1267;108711;-81
2024/01/27 04:43:05;;;;;;;11.30;2.40;;;;;;;4.11;81.21;100311.17;129810;1266;108327;-79
2024/01/27 04:46:11;;;;;;;9.60;2.30;;;;;;;4.17;81.91;100309.39;129788;1269;108829;-80
2024/01/27 04:49:17;;;;;;;9.30;2.30;;;;;;;4.22;81.15;100316.91;129751;1267;107611;-81
2024/01/27 04:52:22;;;;;;;8.40;2.20;;;;;;;4.17;80.77;100320.95;129818;1268;108774;-81
2024/01/27 04:55:28;;;;;;;8.70;2.30;;;;;;;4.15;81.37;100317.94;129868;1268;106911;-81
2024/01/27 04:58:33;;;;;;;10.40;3.00;;;;;;;4.15;81.04;100317.45;129879;1265;108783;-81
2024/01/27 05:01:39;;;;;;;9.60;2.10;;;;;;;4.12;81.13;100312.22;129815;1270;107545;-81
2024/01/27 05:04:45;;;;;;;7.80;2.00;;;;;;;4.10;80.74;100320.23;129744;1266;106880;-81
2024/01/27 05:07:50;;;;;;;8.70;1.80;;;;;;;4.11;81.19;100319.81;129829;1268;107666;-82
2024/01/27 05:10:56;;;;;;;8.00;2.00;;;;;;;4.14;80.19;100329.84;129832;1267;106607;-81
2024/01/27 05:14:02;;;;;;;6.80;1.90;;;;;;;4.18;80.64;100321.27;129790;1267;107713;-81
2024/01/27 05:17:07;;;;;;;8.50;2.30;;;;;;;4.25;80.55;100318.47;129808;1265;106441;-81
2024/01/27 05:20:13;;;;;;;8.00;2.00;;;;;;;4.28;80.32;100311.76;129842;1267;107255;-82
2024/01/27 05:23:19;;;;;;;8.50;1.90;;;;;;;4.27;79.55;100319.22;129829;1269;108797;-81
2024/01/27 05:26:24;;;;;;;13.00;2.00;;;;;;;4.23;79.83;100312.98;130088;1264;108701;-81
2024/01/27 05:29:30;;;;;;;8.40;2.00;;;;;;;4.21;80.13;100312.27;130400;1264;108769;-81
2024/01/27 05:32:35;;;;;;;11.70;2.70;;;;;;;4.21;80.00;100314.14;130285;1269;107999;-80
2024/01/27 05:35:41;;;;;;;11.30;2.80;;;;;;;4.21;80.40;100314.33;129861;1270;109073;-83
2024/01/27 05:38:47;;;;;;;54.10;27.30;;;;;;;4.20;80.13;100309.89;129818;1270;106819;-80
2024/01/27 05:41:52;;;;;;;35.70;14.60;;;;;;;4.16;79.69;100307.55;129825;1264;106704;-80
2024/01/27 05:44:58;;;;;;;32.40;16.10;;;;;;;4.14;79.65;100307.81;129840;1269;108703;-80
2024/01/27 05:48:04;;;;;;;16.90;5.70;;;;;;;4.18;79.74;100312.65;129869;1269;107392;-82
2024/01/27 05:51:10;;;;;;;13.90;4.40;;;;;;;4.17;79.50;100321.48;129887;1265;107682;-82
2024/01/27 05:54:16;;;;;;;8.80;3.50;;;;;;;4.10;80.19;100322.89;129925;1265;108809;-83
2024/01/27 05:57:22;;;;;;;11.20;4.70;;;;;;;4.04;80.80;100325.77;129845;1268;107155;-81
2024/01/27 06:00:28;;;;;;;12.50;4.20;;;;;;;4.01;81.28;100320.55;129860;1265;108721;-80
2024/01/27 06:03:35;;;;;;;252.40;159.30;;;;;;;3.96;81.68;100316.38;129862;1267;108720;-80
2024/01/27 06:06:41;;;;;;;17.40;7.90;;;;;;;3.93;81.68;100322.52;129784;1270;106558;-80
2024/01/27 06:09:47;;;;;;;14.90;6.10;;;;;;;3.86;81.63;100322.08;129809;1270;106124;-80
2024/01/27 06:12:53;;;;;;;22.00;9.80;;;;;;;3.83;81.85;100323.77;129786;1270;108766;-80
2024/01/27 06:15:58;;;;;;;9.80;3.70;;;;;;;3.85;82.25;100317.63;129808;1270;107045;-81
2024/01/27 06:19:04;;;;;;;16.30;7.80;;;;;;;3.86;82.36;100320.52;129766;1267;108733;-82
2024/01/27 06:22:12;;;;;;;21.70;11.10;;;;;;;3.85;82.40;100320.30;130102;1264;108593;-81
2024/01/27 06:25:18;;;;;;;17.30;4.10;;;;;;;3.84;82.53;100319.43;129896;1270;106488;-81
2024/01/27 06:28:41;;;;;;;11.20;2.60;;;;;;;3.77;82.78;100322.21;129811;1270;109177;-81
2024/01/27 06:31:47;;;;;;;86.50;30.20;;;;;;;3.75;83.09;100326.59;129853;1267;105492;-81
2024/01/27 06:34:52;;;;;;;12.70;3.90;;;;;;;3.77;83.03;100325.42;130084;1270;106778;-78
2024/01/27 06:37:58;;;;;;;9.80;2.80;;;;;;;3.81;83.23;100330.19;129604;1270;108805;-79
2024/01/27 06:41:04;;;;;;;11.40;3.40;;;;;;;3.82;83.20;100333.35;129810;1269;108776;-82
2024/01/27 06:44:09;;;;;;;9.60;4.00;;;;;;;3.78;83.51;100337.96;129603;1267;108155;-80
2024/01/27 06:47:15;;;;;;;15.10;4.10;;;;;;;3.72;84.18;100342.48;129806;1269;107048;-79
2024/01/27 06:50:21;;;;;;;14.90;5.00;;;;;;;3.59;84.38;100340.23;129549;1270;106343;-81
2024/01/27 06:53:26;;;;;;;266.00;82.40;;;;;;;3.59;84.35;100340.60;129588;1268;107849;-81
2024/01/27 06:56:32;;;;;;;16.40;6.80;;;;;;;3.64;84.58;100337.77;129804;1267;108860;-80
2024/01/27 06:59:38;;;;;;;18.00;8.50;;;;;;;3.68;84.65;100339.05;129777;1269;106882;-80
2024/01/27 07:02:43;;;;;;;14.60;6.30;;;;;;;3.72;84.78;100344.75;129802;1265;107642;-80
2024/01/27 07:05:49;;;;;;;14.00;5.70;;;;;;;3.70;85.00;100352.64;129781;1264;109032;-80
2024/01/27 07:08:55;;;;;;;10.70;3.30;;;;;;;3.72;84.96;100353.73;129689;1265;107079;-80
2024/01/27 07:12:00;;;;;;;14.50;5.10;;;;;;;3.63;85.33;100349.94;129983;1267;107553;-80
2024/01/27 07:15:07;;;;;;;8.80;3.20;;;;;;;3.56;85.85;100350.26;130031;1268;108721;-79
2024/01/27 07:18:12;;;;;;;24.90;9.10;;;;;;;3.49;86.28;100355.86;129913;1265;107478;-80
2024/01/27 07:21:19;;;;;;;17.00;5.50;;;;;;;3.45;87.09;100354.52;129663;1270;107989;-81
2024/01/27 07:24:26;;;;;;;25.00;9.20;;;;;;;3.39;87.70;100361.48;129947;1265;106378;-79
2024/01/27 07:27:32;;;;;;;13.20;4.20;;;;;;;3.29;87.86;100368.27;129623;1268;107702;-81
2024/01/27 07:30:39;;;;;;;12.80;4.70;;;;;;;3.25;87.30;100371.91;129869;1269;108593;-78
2024/01/27 07:33:44;;;;;;;33.70;24.50;;;;;;;3.29;87.90;100374.40;129717;1270;107033;-81
2024/01/27 07:36:50;;;;;;;56.50;20.50;;;;;;;3.33;87.66;100377.46;130111;1264;108113;-81
2024/01/27 07:39:55;;;;;;;341.80;275.00;;;;;;;3.38;87.56;100372.95;130617;1264;106467;-81
2024/01/27 07:43:04;;;;;;;25.40;15.70;;;;;;;3.43;87.86;100380.02;132081;1265;108668;-81
2024/01/27 07:46:10;;;;;;;17.90;6.00;;;;;;;3.37;88.03;100379.30;130505;1264;108694;-81
2024/01/27 07:49:16;;;;;;;11.80;4.10;;;;;;;3.32;88.03;100382.66;130196;1268;107917;-80
2024/01/27 07:52:25;;;;;;;67.20;25.30;;;;;;;3.33;88.00;100389.44;130976;1264;107668;-79
2024/01/27 07:55:31;;;;;;;102.60;42.10;;;;;;;3.38;88.05;100380.33;130072;1264;107462;-80
2024/01/27 07:58:37;;;;;;;69.00;29.50;;;;;;;3.42;88.19;100377.59;129796;1267;106325;-80
2024/01/27 08:01:43;;;;;;;95.40;47.90;;;;;;;3.46;88.07;100383.77;130115;1267;106405;-79
2024/01/27 08:04:48;;;;;;;31.70;14.20;;;;;;;3.44;88.29;100388.88;129967;1267;108681;-80
2024/01/27 08:07:54;;;;;;;22.30;10.20;;;;;;;3.36;88.63;100387.29;129611;1277;106343;-79
2024/01/27 08:10:59;;;;;;;60.70;28.70;;;;;;;3.34;88.75;100390.63;129677;1271;106743;-79
2024/01/27 08:14:05;;;;;;;38.70;20.70;;;;;;;3.31;89.36;100400.13;129907;1270;109624;-82
2024/01/27 08:17:11;;;;;;;28.40;15.00;;;;;;;3.34;89.05;100404.48;129924;1265;107663;-83
2024/01/27 08:20:16;;;;;;;86.90;37.50;;;;;;;3.32;89.51;100402.16;129895;1265;106507;-82
2024/01/27 08:23:22;;;;;;;26.80;10.70;;;;;;;3.34;89.01;100402.03;130032;1265;108164;-81
2024/01/27 08:26:28;;;;;;;8.30;4.40;;;;;;;3.40;89.17;100401.11;129909;1270;108616;-81
2024/01/27 08:29:33;;;;;;;11.80;6.00;;;;;;;3.40;89.13;100401.45;129938;1267;108749;-80
2024/01/27 08:32:39;;;;;;;16.60;9.40;;;;;;;3.48;89.21;100400.90;129899;1264;107761;-82
2024/01/27 08:35:47;;;;;;;14.50;9.20;;;;;;;3.51;89.37;100409.67;129877;1264;107487;-78
2024/01/27 08:38:52;;;;;;;15.70;7.40;;;;;;;3.52;88.84;100411.36;130054;1264;108701;-79
2024/01/27 08:41:58;;;;;;;11.60;5.60;;;;;;;3.52;88.95;100409.21;129660;1270;107497;-81
2024/01/27 08:45:04;;;;;;;12.50;4.70;;;;;;;3.53;88.96;100414.95;129839;1270;107114;-83
2024/01/27 08:48:11;;;;;;;8.90;3.90;;;;;;;3.50;89.26;100413.23;129984;1267;106582;-85
2024/01/27 08:51:17;;;;;;;9.80;5.20;;;;;;;3.54;89.22;100423.35;130011;1270;107711;-84
2024/01/27 08:54:23;;;;;;;9.10;3.70;;;;;;;3.65;89.18;100423.73;129961;1267;107752;-84
2024/01/27 08:57:29;;;;;;;8.00;4.00;;;;;;;3.71;89.11;100428.89;129697;1270;108910;-85
2024/01/27 09:00:35;;;;;;;10.80;4.70;;;;;;;3.73;89.18;100426.69;129932;1270;106844;-84
2024/01/27 09:03:41;;;;;;;7.30;3.40;;;;;;;3.66;89.59;100431.20;129924;1270;106153;-84
2024/01/27 09:06:46;;;;;;;6.50;2.90;;;;;;;3.64;89.78;100433.60;130140;1265;106760;-85
2024/01/27 09:09:52;;;;;;;6.10;3.60;;;;;;;3.56;89.86;100436.59;130034;1269;106710;-84
2024/01/27 09:12:58;;;;;;;7.20;3.30;;;;;;;3.59;90.04;100437.98;130083;1267;106996;-84
2024/01/27 09:16:03;;;;;;;8.50;4.20;;;;;;;3.58;89.75;100443.38;129955;1269;108398;-84
2024/01/27 09:19:09;;;;;;;4.80;2.60;;;;;;;3.57;89.79;100452.91;130003;1267;107940;-85
2024/01/27 09:22:15;;;;;;;6.80;3.40;;;;;;;3.54;90.06;100462.04;129914;1267;108604;-84
2024/01/27 09:25:20;;;;;;;9.00;4.60;;;;;;;3.54;90.08;100467.20;129997;1269;107695;-83
2024/01/27 09:28:26;;;;;;;6.90;2.60;;;;;;;3.60;90.41;100460.62;129915;1264;108683;-81
2024/01/27 09:31:31;;;;;;;7.00;4.00;;;;;;;3.61;90.42;100467.97;129867;1264;109018;-85
2024/01/27 09:34:37;;;;;;;4.50;2.60;;;;;;;3.60;90.07;100468.70;129891;1270;108725;-84
2024/01/27 09:37:45;;;;;;;5.00;2.40;;;;;;;3.56;90.31;100476.20;129868;1270;108583;-81
2024/01/27 09:40:51;;;;;;;6.60;2.50;;;;;;;3.49;90.70;100478.40;129898;1270;107557;-83
2024/01/27 09:44:00;;;;;;;4.90;2.80;;;;;;;3.51;90.63;100487.61;129916;1267;108533;-84
2024/01/27 09:47:06;;;;;;;5.40;2.80;;;;;;;3.46;90.98;100493.01;129944;1267;109394;-83
2024/01/27 09:50:14;;;;;;;5.70;2.90;;;;;;;3.41;90.92;100489.48;129976;1265;109019;-82
2024/01/27 09:53:20;;;;;;;7.60;3.50;;;;;;;3.46;90.83;100491.82;129951;1267;108827;-83
2024/01/27 09:56:27;;;;;;;7.20;2.90;;;;;;;3.45;91.00;100495.53;129961;1269;108880;-80
2024/01/27 09:59:34;;;;;;;5.80;2.80;;;;;;;3.46;90.84;100495.47;129930;1267;108576;-82
2024/01/27 10:02:41;;;;;;;6.60;2.90;;;;;;;3.44;91.57;100502.52;129904;1265;108469;-83
2024/01/27 10:05:48;;;;;;;7.40;3.70;;;;;;;3.41;91.76;100503.04;130155;1264;106695;-83
2024/01/27 10:08:57;;;;;;;7.90;3.80;;;;;;;3.41;92.06;100507.28;129888;1278;107647;-82
2024/01/27 10:12:03;;;;;;;5.20;3.20;;;;;;;3.32;92.62;100512.39;130036;1267;107464;-84
2024/01/27 10:15:19;;;;;;;7.00;2.50;;;;;;;3.25;93.10;100520.11;130804;1264;108174;-81
2024/01/27 10:18:25;;;;;;;60.10;24.10;;;;;;;3.14;94.27;100520.58;130020;1265;106394;-83
2024/01/27 10:21:30;;;;;;;9.50;4.30;;;;;;;3.14;94.68;100527.81;129917;1267;106578;-82
2024/01/27 10:24:36;;;;;;;9.70;5.80;;;;;;;3.10;94.62;100533.85;129912;1265;108694;-81
2024/01/27 10:27:42;;;;;;;15.20;8.40;;;;;;;3.09;94.92;100551.86;129858;1269;106639;-82
2024/01/27 10:30:49;;;;;;;4.10;2.60;;;;;;;3.04;95.08;100547.59;130017;1269;106463;-82
2024/01/27 10:33:59;;;;;;;5.00;2.60;;;;;;;2.93;96.23;100564.30;130005;1267;107527;-81
2024/01/27 10:37:04;;;;;;;7.90;3.70;;;;;;;2.89;96.75;100562.43;129964;1278;109078;-82
2024/01/27 10:40:12;;;;;;;3.60;2.10;;;;;;;2.89;97.42;100565.09;129906;1270;106420;-80
2024/01/27 10:43:20;;;;;;;5.90;2.50;;;;;;;2.85;97.32;100566.04;129879;1270;106382;-79
2024/01/27 10:46:41;;;;;;;4.80;2.50;;;;;;;2.89;97.42;100569.13;129759;1270;108850;-81
2024/01/27 10:49:58;;;;;;;4.20;2.80;;;;;;;2.91;96.99;100576.91;129956;1270;107543;-86
2024/01/27 10:53:12;;;;;;;5.90;2.60;;;;;;;2.88;97.88;100590.62;130145;1266;107835;-82
2024/01/27 10:56:22;;;;;;;4.10;2.10;;;;;;;2.80;97.77;100588.67;130020;1267;107886;-83
2024/01/27 10:59:33;;;;;;;5.80;2.70;;;;;;;2.74;98.07;100594.08;130044;1267;108174;-83
2024/01/27 11:02:42;;;;;;;5.60;2.90;;;;;;;2.76;98.50;100598.92;131293;1265;108569;-84
2024/01/27 11:05:51;;;;;;;4.80;3.00;;;;;;;2.80;98.60;100606.23;130134;1269;108596;-85
2024/01/27 11:08:57;;;;;;;4.90;3.20;;;;;;;2.80;98.34;100607.98;130281;1264;108247;-84
2024/01/27 11:12:04;;;;;;;4.00;2.60;;;;;;;2.81;99.14;100616.36;130040;1278;108620;-85
2024/01/27 11:15:10;;;;;;;6.60;3.60;;;;;;;2.81;99.38;100622.33;130339;1263;107777;-84
2024/01/27 11:18:18;;;;;;;7.60;4.10;;;;;;;2.84;98.95;100624.26;129984;1270;108632;-83
2024/01/27 11:21:23;;;;;;;6.00;3.50;;;;;;;2.84;99.25;100631.83;129960;1269;107855;-85
2024/01/27 11:24:29;;;;;;;6.70;3.40;;;;;;;2.85;99.40;100634.74;129973;1270;108721;-84
2024/01/27 11:27:35;;;;;;;7.40;3.90;;;;;;;2.88;99.79;100653.20;129952;1263;106917;-84
2024/01/27 11:30:40;;;;;;;5.70;3.60;;;;;;;2.89;100.00;100650.11;130004;1278;107703;-85
2024/01/27 11:33:48;;;;;;;9.90;5.20;;;;;;;2.91;100.00;100657.38;129926;1274;107280;-85
2024/01/27 11:36:53;;;;;;;11.30;5.70;;;;;;;2.91;100.00;100661.06;129891;1270;108578;-85
2024/01/27 11:40:09;;;;;;;9.20;4.50;;;;;;;2.93;100.00;100669.34;129913;1270;106346;-85
2024/01/27 11:43:15;;;;;;;12.80;5.20;;;;;;;3.00;99.79;100675.99;129918;1274;108486;-85
2024/01/27 11:46:21;;;;;;;5.60;3.10;;;;;;;3.04;99.89;100673.29;129902;1270;108753;-85
2024/01/27 11:49:27;;;;;;;7.60;3.60;;;;;;;3.00;99.98;100678.07;129818;1281;108528;-85
2024/01/27 11:52:33;;;;;;;25.60;8.90;;;;;;;3.00;100.00;100681.42;129878;1270;106777;-84
2024/01/27 11:55:39;;;;;;;14.30;5.80;;;;;;;3.02;99.73;100686.92;129905;1269;107631;-84
2024/01/27 11:58:50;;;;;;;8.30;3.80;;;;;;;3.06;99.90;100698.83;129869;1270;106654;-86
2024/01/27 12:01:56;;;;;;;21.50;7.20;;;;;;;3.03;99.96;100705.83;129829;1270;108819;-83
2024/01/27 12:05:02;;;;;;;9.90;5.40;;;;;;;3.03;99.74;100708.17;129828;1269;106897;-82
2024/01/27 12:08:10;;;;;;;6.50;3.10;;;;;;;3.08;99.69;100715.77;129834;1270;106625;-83
2024/01/27 12:11:15;;;;;;;6.70;3.50;;;;;;;3.08;99.60;100722.77;129746;1270;106687;-87
2024/01/27 12:14:21;;;;;;;7.20;4.40;;;;;;;3.05;99.71;100728.08;129700;1267;108478;-85
2024/01/27 12:17:26;;;;;;;9.70;4.20;;;;;;;3.06;99.73;100737.63;129840;1269;106507;-84
2024/01/27 12:20:32;;;;;;;15.70;7.00;;;;;;;3.05;99.63;100739.30;129859;1270;106610;-86
2024/01/27 12:23:48;;;;;;;8.10;4.80;;;;;;;3.04;99.74;100746.73;130054;1278;107714;-83
2024/01/27 12:26:56;;;;;;;6.30;3.50;;;;;;;3.05;99.88;100751.63;129915;1270;108775;-84
2024/01/27 12:30:03;;;;;;;8.20;4.10;;;;;;;3.02;99.61;100759.20;129918;1271;108794;-83
2024/01/27 12:33:14;;;;;;;15.60;9.10;;;;;;;2.99;99.93;100767.59;129910;1278;107157;-84
2024/01/27 12:36:21;;;;;;;10.50;5.40;;;;;;;3.00;99.92;100775.44;129886;1276;106505;-85
2024/01/27 12:39:31;;;;;;;12.80;6.80;;;;;;;3.03;99.45;100779.48;129918;1269;107479;-85
2024/01/27 12:42:37;;;;;;;6.50;4.30;;;;;;;3.07;99.66;100784.20;129869;1269;106326;-84
2024/01/27 12:45:46;;;;;;;4.90;3.10;;;;;;;3.07;99.65;100789.78;129816;1269;108471;-82
2024/01/27 12:48:51;;;;;;;12.50;5.90;;;;;;;3.09;99.39;100791.05;129826;1270;107731;-84
2024/01/27 12:51:57;;;;;;;7.20;3.80;;;;;;;3.16;99.36;100796.15;129859;1270;108700;-85
2024/01/27 12:55:03;;;;;;;15.70;7.40;;;;;;;3.18;99.61;100804.80;129853;1271;108457;-84
2024/01/27 12:58:09;;;;;;;16.00;8.00;;;;;;;3.22;99.47;100810.92;129883;1265;107483;-86
2024/01/27 13:01:15;;;;;;;6.40;3.80;;;;;;;3.21;99.31;100824.83;129811;1269;107788;-85
2024/01/27 13:04:21;;;;;;;13.40;5.20;;;;;;;3.14;99.80;100836.00;129829;1267;106283;-84
2024/01/27 13:07:27;;;;;;;8.30;4.60;;;;;;;3.13;99.96;100839.14;129842;1269;108643;-85
2024/01/27 13:10:32;;;;;;;9.40;5.30;;;;;;;3.16;99.89;100842.91;129850;1270;107028;-83
2024/01/27 13:13:38;;;;;;;8.90;4.10;;;;;;;3.14;99.97;100845.09;129881;1269;107172;-83
2024/01/27 13:16:44;;;;;;;136.10;46.90;;;;;;;3.15;99.94;100850.84;129846;1278;109067;-84
2024/01/27 13:19:50;;;;;;;9.70;5.20;;;;;;;3.19;99.79;100858.20;129845;1270;107729;-84
2024/01/27 13:22:56;;;;;;;10.50;5.10;;;;;;;3.27;99.73;100864.41;129882;1270;108869;-84
2024/01/27 13:26:02;;;;;;;50.50;18.20;;;;;;;3.29;99.38;100864.28;129914;1275;107418;-85
2024/01/27 13:29:08;;;;;;;10.10;5.00;;;;;;;3.32;99.16;100874.13;129843;1266;107211;-84
2024/01/27 13:32:14;;;;;;;21.90;8.80;;;;;;;3.27;99.31;100881.46;129892;1278;108838;-84
2024/01/27 13:35:19;;;;;;;23.10;10.20;;;;;;;3.25;99.49;100884.54;130000;1270;106392;-84
2024/01/27 13:38:26;;;;;;;10.10;5.60;;;;;;;3.26;99.54;100885.38;129790;1269;106775;-85
2024/01/27 13:41:31;;;;;;;10.20;4.90;;;;;;;3.27;99.61;100890.40;129929;1270;106808;-84
2024/01/27 13:44:38;;;;;;;14.80;8.90;;;;;;;3.26;99.51;100901.75;129880;1271;108319;-86
2024/01/27 13:47:44;;;;;;;17.60;10.90;;;;;;;3.24;99.35;100911.01;129841;1270;108730;-86
2024/01/27 13:50:50;;;;;;;11.60;6.00;;;;;;;3.22;99.46;100916.75;129902;1271;107900;-82
2024/01/27 13:53:56;;;;;;;13.80;6.90;;;;;;;3.20;99.38;100921.60;129847;1266;107607;-85
2024/01/27 13:57:01;;;;;;;18.60;10.40;;;;;;;3.23;99.18;100926.35;129909;1269;107658;-86
2024/01/27 14:00:10;;;;;;;6.90;4.40;;;;;;;3.24;99.07;100930.84;129864;1267;106638;-86
2024/01/27 14:03:15;;;;;;;14.80;7.60;;;;;;;3.23;98.97;100938.99;129877;1268;106814;-84
2024/01/27 14:06:21;;;;;;;10.10;4.90;;;;;;;3.21;99.27;100951.27;129931;1267;106339;-84
2024/01/27 14:09:27;;;;;;;13.80;7.40;;;;;;;3.17;99.20;100954.84;129877;1270;107678;-85